Time;durP1;ratioP1;P1;durP2;ratioP2;P2;SDS_P1;SDS_P2;PMS_P1;PMS_P2;Temp;Humidity;BMP_temperature;BMP_pressure;BME280_temperature;BME280_humidity;BME280_pressure;Samples;Min_cycle;Max_cycle;Signal;HPM_P1;HPM_P2
2022/06/15 00:00:19;;;;;;;;;;;;;;;;;;5086692;28;20014;-80
2022/06/15 00:02:45;;;;;;;;;;;;;;;;;;5082065;28;19930;-78
2022/06/15 00:05:11;;;;;;;;;;;;;;;;;;5082901;28;20401;-77
2022/06/15 00:07:37;;;;;;;;;;;;;;;;;;5084686;28;19932;-80
2022/06/15 00:10:03;;;;;;;;;;;;;;;;;;5083799;28;19936;-79
2022/06/15 00:12:29;;;;;;;;;;;;;;;;;;5082887;28;19930;-78
2022/06/15 00:14:55;;;;;;;;;;;;;;;;;;5094969;28;19968;-77
2022/06/15 00:17:21;;;;;;;;;;;;;;;;;;5064862;28;20335;-77
2022/06/15 00:19:47;;;;;;;;;;;;;;;;;;5082271;28;19927;-77
2022/06/15 00:22:13;;;;;;;;;;;;;;;;;;5076536;28;19935;-78
2022/06/15 00:24:39;;;;;;;;;;;;;;;;;;5076755;28;19924;-78
2022/06/15 00:27:05;;;;;;;;;;;;;;;;;;5077338;28;19944;-77
2022/06/15 00:29:33;;;;;;;;;;;;;;;;;;5061859;28;20472;-78
2022/06/15 00:31:59;;;;;;;;;;;;;;;;;;5085717;28;19931;-78
2022/06/15 00:34:25;;;;;;;;;;;;;;;;;;5101251;28;19931;-78
2022/06/15 00:36:51;;;;;;;;;;;;;;;;;;5080527;28;19928;-78
2022/06/15 00:39:17;;;;;;;;;;;;;;;;;;5080098;28;19930;-78
2022/06/15 00:41:43;;;;;;;;;;;;;;;;;;5075977;28;19927;-78
2022/06/15 00:44:09;;;;;;;;;;;;;;;;;;5072931;28;20360;-80
2022/06/15 00:46:37;;;;;;;;;;;;;;;;;;5083537;28;20381;-77
2022/06/15 00:49:02;;;;;;;;;;;;;;;;;;5074425;28;20339;-77
2022/06/15 00:51:28;;;;;;;;;;;;;;;;;;5081485;28;19931;-79
2022/06/15 00:53:54;;;;;;;;;;;;;;;;;;5079001;28;20046;-77
2022/06/15 00:56:20;;;;;;;;;;;;;;;;;;5081914;28;19924;-78
2022/06/15 00:58:46;;;;;;;;;;;;;;;;;;5079533;28;20382;-77
2022/06/15 01:01:12;;;;;;;;;;;;;;;;;;5084006;28;19923;-77
2022/06/15 01:03:38;;;;;;;;;;;;;;;;;;5084171;28;19934;-80
2022/06/15 01:06:05;;;;;;;;;;;;;;;;;;5064148;28;20027;-77
2022/06/15 01:08:30;;;;;;;;;;;;;;;;;;5083160;28;19924;-78
2022/06/15 01:10:56;;;;;;;;;;;;;;;;;;5100717;28;19923;-77
2022/06/15 01:13:22;;;;;;;;;;;;;;;;;;5080238;28;20393;-77
2022/06/15 01:15:48;;;;;;;;;;;;;;;;;;5078505;28;19957;-77
2022/06/15 01:18:14;;;;;;;;;;;;;;;;;;5080096;28;19928;-77
2022/06/15 01:20:40;;;;;;;;;;;;;;;;;;5085961;28;20301;-77
2022/06/15 01:23:07;;;;;;;;;;;;;;;;;;5081737;28;19930;-77
2022/06/15 01:25:33;;;;;;;;;;;;;;;;;;5080908;28;19934;-78
2022/06/15 01:28:00;;;;;;;;;;;;;;;;;;5078285;28;22154;-77
2022/06/15 01:30:26;;;;;;;;;;;;;;;;;;5063923;28;19932;-78
2022/06/15 01:32:52;;;;;;;;;;;;;;;;;;5057893;28;19934;-78
2022/06/15 01:35:18;;;;;;;;;;;;;;;;;;5078471;28;20014;-77
2022/06/15 01:37:43;;;;;;;;;;;;;;;;;;5060201;28;19971;-80
2022/06/15 01:40:09;;;;;;;;;;;;;;;;;;5079358;28;19932;-78
2022/06/15 01:42:35;;;;;;;;;;;;;;;;;;5096748;28;19928;-77
2022/06/15 01:45:01;;;;;;;;;;;;;;;;;;5081383;28;20436;-77
2022/06/15 01:47:27;;;;;;;;;;;;;;;;;;5078495;28;20359;-77
2022/06/15 01:49:53;;;;;;;;;;;;;;;;;;5080832;28;20386;-77
2022/06/15 01:52:19;;;;;;;;;;;;;;;;;;5078644;28;20386;-79
2022/06/15 01:54:45;;;;;;;;;;;;;;;;;;5083288;28;20363;-80
2022/06/15 01:57:11;;;;;;;;;;;;;;;;;;5095562;28;20431;-78
2022/06/15 01:59:37;;;;;;;;;;;;;;;;;;5079956;28;20337;-77
2022/06/15 02:02:03;;;;;;;;;;;;;;;;;;5076567;28;20275;-77
2022/06/15 02:04:29;;;;;;;;;;;;;;;;;;5101752;28;19928;-78
2022/06/15 02:06:55;;;;;;;;;;;;;;;;;;5061643;28;20677;-77
2022/06/15 02:09:21;;;;;;;;;;;;;;;;;;5085694;28;19963;-77
2022/06/15 02:11:47;;;;;;;;;;;;;;;;;;5084538;28;19931;-80
2022/06/15 02:14:12;;;;;;;;;;;;;;;;;;5082511;28;19928;-78
2022/06/15 02:16:38;;;;;;;;;;;;;;;;;;5082110;28;20394;-76
2022/06/15 02:19:04;;;;;;;;;;;;;;;;;;5068403;28;19984;-76
2022/06/15 02:21:30;;;;;;;;;;;;;;;;;;5086287;28;19973;-76
2022/06/15 02:23:56;;;;;;;;;;;;;;;;;;5086839;28;19924;-76
2022/06/15 02:26:22;;;;;;;;;;;;;;;;;;5083329;28;21101;-78
2022/06/15 02:28:48;;;;;;;;;;;;;;;;;;5081452;28;20058;-79
2022/06/15 02:31:14;;;;;;;;;;;;;;;;;;5083826;28;20454;-76
2022/06/15 02:33:40;;;;;;;;;;;;;;;;;;5102674;28;20031;-77
2022/06/15 02:36:06;;;;;;;;;;;;;;;;;;5085080;28;19924;-76
2022/06/15 02:38:32;;;;;;;;;;;;;;;;;;5085839;28;20390;-78
2022/06/15 02:40:58;;;;;;;;;;;;;;;;;;5083428;28;19924;-77
2022/06/15 02:43:24;;;;;;;;;;;;;;;;;;5083935;28;20050;-77
2022/06/15 02:45:50;;;;;;;;;;;;;;;;;;5100443;28;20022;-77
2022/06/15 02:48:16;;;;;;;;;;;;;;;;;;5081476;28;19935;-76
2022/06/15 02:50:42;;;;;;;;;;;;;;;;;;5083261;28;19927;-77
2022/06/15 02:53:08;;;;;;;;;;;;;;;;;;5081798;28;20451;-76
2022/06/15 02:55:34;;;;;;;;;;;;;;;;;;5100555;28;19931;-77
2022/06/15 02:58:00;;;;;;;;;;;;;;;;;;5080653;28;19932;-76
2022/06/15 03:00:26;;;;;;;;;;;;;;;;;;5103525;28;19924;-77
2022/06/15 03:02:52;;;;;;;;;;;;;;;;;;5080067;28;19963;-77
2022/06/15 03:05:18;;;;;;;;;;;;;;;;;;5082237;28;19943;-77
2022/06/15 03:07:44;;;;;;;;;;;;;;;;;;5068876;28;19934;-76
2022/06/15 03:10:09;;;;;;;;;;;;;;;;;;5098902;28;19925;-76
2022/06/15 03:12:35;;;;;;;;;;;;;;;;;;5082638;28;20051;-79
2022/06/15 03:15:01;;;;;;;;;;;;;;;;;;5082294;28;19984;-77
2022/06/15 03:17:27;;;;;;;;;;;;;;;;;;5077128;28;20050;-77
2022/06/15 03:19:53;;;;;;;;;;;;;;;;;;5082084;28;19932;-77
2022/06/15 03:22:19;;;;;;;;;;;;;;;;;;5083845;28;19928;-76
2022/06/15 03:24:45;;;;;;;;;;;;;;;;;;5081652;28;19935;-76
2022/06/15 03:27:11;;;;;;;;;;;;;;;;;;5099570;28;19931;-76
2022/06/15 03:29:37;;;;;;;;;;;;;;;;;;5063911;28;19967;-76
2022/06/15 03:32:03;;;;;;;;;;;;;;;;;;5078655;28;19974;-76
2022/06/15 03:34:30;;;;;;;;;;;;;;;;;;5079768;28;19931;-76
2022/06/15 03:36:56;;;;;;;;;;;;;;;;;;5077084;28;19924;-77
2022/06/15 03:39:22;;;;;;;;;;;;;;;;;;5082670;28;19920;-78
2022/06/15 03:41:48;;;;;;;;;;;;;;;;;;5103054;28;19924;-77
2022/06/15 03:44:14;;;;;;;;;;;;;;;;;;5084447;28;19933;-76
2022/06/15 03:46:39;;;;;;;;;;;;;;;;;;5078382;28;19973;-77
2022/06/15 03:49:06;;;;;;;;;;;;;;;;;;5101525;28;19962;-76
2022/06/15 03:51:32;;;;;;;;;;;;;;;;;;5080040;28;20304;-76
2022/06/15 03:53:58;;;;;;;;;;;;;;;;;;5084926;28;20006;-77
2022/06/15 03:56:23;;;;;;;;;;;;;;;;;;5080954;28;20290;-77
2022/06/15 03:58:49;;;;;;;;;;;;;;;;;;5081941;28;20014;-78
2022/06/15 04:01:15;;;;;;;;;;;;;;;;;;5095374;28;19996;-76
2022/06/15 04:03:41;;;;;;;;;;;;;;;;;;5080806;28;19928;-77
2022/06/15 04:06:07;;;;;;;;;;;;;;;;;;5079762;28;19928;-76
2022/06/15 04:08:39;;;;;;;;;;;;;;;;;;5083253;28;20066;-78
2022/06/15 04:11:06;;;;;;;;;;;;;;;;;;5080619;28;19939;-77
2022/06/15 04:13:32;;;;;;;;;;;;;;;;;;5082393;28;19931;-77
2022/06/15 04:15:58;;;;;;;;;;;;;;;;;;5079477;28;19932;-77
2022/06/15 04:18:24;;;;;;;;;;;;;;;;;;5078352;28;20023;-78
2022/06/15 04:20:50;;;;;;;;;;;;;;;;;;5079081;28;19924;-77
2022/06/15 04:23:16;;;;;;;;;;;;;;;;;;5068599;28;20139;-77
2022/06/15 04:25:42;;;;;;;;;;;;;;;;;;5059241;28;19956;-77
2022/06/15 04:28:08;;;;;;;;;;;;;;;;;;5079722;28;20016;-76
2022/06/15 04:30:34;;;;;;;;;;;;;;;;;;5082599;28;19935;-79
2022/06/15 04:33:00;;;;;;;;;;;;;;;;;;5063772;28;19963;-77
2022/06/15 04:35:26;;;;;;;;;;;;;;;;;;5077425;28;20302;-77
2022/06/15 04:37:52;;;;;;;;;;;;;;;;;;5086973;28;20032;-76
2022/06/15 04:40:18;;;;;;;;;;;;;;;;;;5088149;28;19931;-76
2022/06/15 04:42:44;;;;;;;;;;;;;;;;;;5092337;28;19971;-76
2022/06/15 04:45:10;;;;;;;;;;;;;;;;;;5068173;28;19924;-76
2022/06/15 04:47:36;;;;;;;;;;;;;;;;;;5077286;28;19978;-76
2022/06/15 04:50:02;;;;;;;;;;;;;;;;;;5082115;28;21775;-78
2022/06/15 04:52:28;;;;;;;;;;;;;;;;;;5093185;28;19924;-77
2022/06/15 04:54:54;;;;;;;;;;;;;;;;;;5085334;28;19982;-77
2022/06/15 04:57:20;;;;;;;;;;;;;;;;;;5079268;28;19932;-77
2022/06/15 04:59:46;;;;;;;;;;;;;;;;;;5076871;28;20000;-79
2022/06/15 05:02:12;;;;;;;;;;;;;;;;;;5093497;28;19932;-79
2022/06/15 05:04:38;;;;;;;;;;;;;;;;;;5082819;28;19924;-78
2022/06/15 05:07:04;;;;;;;;;;;;;;;;;;5096061;28;19928;-76
2022/06/15 05:09:30;;;;;;;;;;;;;;;;;;5078092;28;20323;-76
2022/06/15 05:11:55;;;;;;;;;;;;;;;;;;5078289;28;20315;-75
2022/06/15 05:14:21;;;;;;;;;;;;;;;;;;5101153;28;20329;-75
2022/06/15 05:16:47;;;;;;;;;;;;;;;;;;5077361;28;20344;-77
2022/06/15 05:19:13;;;;;;;;;;;;;;;;;;5101143;28;19935;-75
2022/06/15 05:21:39;;;;;;;;;;;;;;;;;;5102363;28;19931;-75
2022/06/15 05:24:05;;;;;;;;;;;;;;;;;;5084985;28;20023;-75
2022/06/15 05:26:32;;;;;;;;;;;;;;;;;;5107086;27;20362;-76
2022/06/15 05:28:58;;;;;;;;;;;;;;;;;;5081151;28;19963;-75
2022/06/15 05:31:24;;;;;;;;;;;;;;;;;;5086250;28;20014;-76
2022/06/15 05:33:53;;;;;;;;;;;;;;;;;;5097612;28;20007;-77
2022/06/15 05:36:19;;;;;;;;;;;;;;;;;;5098214;28;20402;-76
2022/06/15 05:38:45;;;;;;;;;;;;;;;;;;5077801;28;19931;-77
2022/06/15 05:41:11;;;;;;;;;;;;;;;;;;5078099;28;19928;-77
2022/06/15 05:46:15;;;;;;;;;;;;;;;;;;5075749;28;19974;-76
2022/06/15 05:48:41;;;;;;;;;;;;;;;;;;5078276;28;19978;-75
2022/06/15 05:51:07;;;;;;;;;;;;;;;;;;5091999;28;19932;-76
2022/06/15 05:53:33;;;;;;;;;;;;;;;;;;5086040;28;19931;-74
2022/06/15 05:55:59;;;;;;;;;;;;;;;;;;5105266;28;19937;-75
2022/06/15 05:58:25;;;;;;;;;;;;;;;;;;5087167;28;19931;-76
2022/06/15 06:00:51;;;;;;;;;;;;;;;;;;5083421;28;19939;-81
2022/06/15 06:03:18;;;;;;;;;;;;;;;;;;5074384;28;20336;-77
2022/06/15 06:05:44;;;;;;;;;;;;;;;;;;5056306;28;19974;-78
2022/06/15 06:08:10;;;;;;;;;;;;;;;;;;5091721;28;19975;-77
2022/06/15 06:10:36;;;;;;;;;;;;;;;;;;5067422;28;19924;-78
2022/06/15 06:13:02;;;;;;;;;;;;;;;;;;5093111;28;19924;-77
2022/06/15 06:15:28;;;;;;;;;;;;;;;;;;5086959;28;19923;-79
2022/06/15 06:17:54;;;;;;;;;;;;;;;;;;5098855;28;19937;-78
2022/06/15 06:20:19;;;;;;;;;;;;;;;;;;5085131;28;19928;-78
2022/06/15 06:22:45;;;;;;;;;;;;;;;;;;5080776;28;19930;-77
2022/06/15 06:25:11;;;;;;;;;;;;;;;;;;5074481;28;19951;-78
2022/06/15 06:27:37;;;;;;;;;;;;;;;;;;5083706;28;19924;-79
2022/06/15 06:30:04;;;;;;;;;;;;;;;;;;5074344;28;19935;-78
2022/06/15 06:32:30;;;;;;;;;;;;;;;;;;5073367;28;20011;-79
2022/06/15 06:34:55;;;;;;;;;;;;;;;;;;5073840;28;20012;-78
2022/06/15 06:37:21;;;;;;;;;;;;;;;;;;5077206;28;19977;-80
2022/06/15 06:39:47;;;;;;;;;;;;;;;;;;5081991;28;19931;-79
2022/06/15 06:42:13;;;;;;;;;;;;;;;;;;5058420;28;19928;-78
2022/06/15 06:44:39;;;;;;;;;;;;;;;;;;5072089;28;19930;-79
2022/06/15 06:47:06;;;;;;;;;;;;;;;;;;5084640;28;19932;-80
2022/06/15 06:49:32;;;;;;;;;;;;;;;;;;5084575;28;19929;-81
2022/06/15 06:51:58;;;;;;;;;;;;;;;;;;5087091;28;19953;-81
2022/06/15 06:54:24;;;;;;;;;;;;;;;;;;5092453;28;20007;-80
2022/06/15 06:56:50;;;;;;;;;;;;;;;;;;5087327;28;19931;-79
2022/06/15 06:59:16;;;;;;;;;;;;;;;;;;5100009;28;19931;-79
2022/06/15 07:01:42;;;;;;;;;;;;;;;;;;5076951;28;20310;-79
2022/06/15 07:04:07;;;;;;;;;;;;;;;;;;5087851;28;20349;-79
2022/06/15 07:06:33;;;;;;;;;;;;;;;;;;5060933;28;19935;-79
2022/06/15 07:08:59;;;;;;;;;;;;;;;;;;5080318;28;19980;-79
2022/06/15 07:11:25;;;;;;;;;;;;;;;;;;5090894;28;19928;-79
2022/06/15 07:13:51;;;;;;;;;;;;;;;;;;5061297;28;19924;-78
2022/06/15 07:16:17;;;;;;;;;;;;;;;;;;5083425;28;19947;-79
2022/06/15 07:18:44;;;;;;;;;;;;;;;;;;5087230;28;19950;-79
2022/06/15 07:21:13;;;;;;;;;;;;;;;;;;5077000;28;20006;-80
2022/06/15 07:23:39;;;;;;;;;;;;;;;;;;5082016;28;20057;-78
2022/06/15 07:26:05;;;;;;;;;;;;;;;;;;5076802;28;20014;-78
2022/06/15 07:28:31;;;;;;;;;;;;;;;;;;5060902;28;19931;-78
2022/06/15 07:30:57;;;;;;;;;;;;;;;;;;5077038;28;19924;-80
2022/06/15 07:33:23;;;;;;;;;;;;;;;;;;5076678;28;19928;-80
2022/06/15 07:35:49;;;;;;;;;;;;;;;;;;5082522;28;19924;-78
2022/06/15 07:38:15;;;;;;;;;;;;;;;;;;5091792;28;19931;-78
2022/06/15 07:40:41;;;;;;;;;;;;;;;;;;5102545;28;19924;-77
2022/06/15 07:43:07;;;;;;;;;;;;;;;;;;5082980;28;19966;-77
2022/06/15 07:45:33;;;;;;;;;;;;;;;;;;5097608;28;20180;-77
2022/06/15 07:50:43;;;;;;;;;;;;;;;;;;5080981;28;19935;-80
2022/06/15 07:53:09;;;;;;;;;;;;;;;;;;5082612;28;19923;-81
2022/06/15 07:55:35;;;;;;;;;;;;;;;;;;5087453;28;19931;-81
2022/06/15 07:58:01;;;;;;;;;;;;;;;;;;5076273;28;19924;-84
2022/06/15 08:00:27;;;;;;;;;;;;;;;;;;5080604;28;19931;-80
2022/06/15 08:02:53;;;;;;;;;;;;;;;;;;5059000;28;19973;-80
2022/06/15 08:05:19;;;;;;;;;;;;;;;;;;5078126;28;19923;-81
2022/06/15 08:07:45;;;;;;;;;;;;;;;;;;5075614;28;19924;-79
2022/06/15 08:10:11;;;;;;;;;;;;;;;;;;5079873;28;20027;-80
2022/06/15 08:12:37;;;;;;;;;;;;;;;;;;5066526;28;19978;-80
2022/06/15 08:15:03;;;;;;;;;;;;;;;;;;5077415;28;19971;-80
2022/06/15 08:17:29;;;;;;;;;;;;;;;;;;5064495;28;19932;-80
2022/06/15 08:19:56;;;;;;;;;;;;;;;;;;5093697;28;19931;-80
2022/06/15 08:22:22;;;;;;;;;;;;;;;;;;5096381;28;19933;-84
2022/06/15 08:24:49;;;;;;;;;;;;;;;;;;5076745;28;20385;-81
2022/06/15 08:27:15;;;;;;;;;;;;;;;;;;5063416;28;19973;-79
2022/06/15 08:29:41;;;;;;;;;;;;;;;;;;5075242;28;19951;-80
2022/06/15 08:32:07;;;;;;;;;;;;;;;;;;5066476;28;19932;-81
2022/06/15 08:34:37;;;;;;;;;;;;;;;;;;5075818;28;20019;-81
2022/06/15 08:37:03;;;;;;;;;;;;;;;;;;5076455;28;19924;-83
2022/06/15 08:39:28;;;;;;;;;;;;;;;;;;5063727;28;20255;-80
2022/06/15 08:41:54;;;;;;;;;;;;;;;;;;5059088;28;19924;-81
2022/06/15 08:44:20;;;;;;;;;;;;;;;;;;5059472;28;19981;-80
2022/06/15 08:46:46;;;;;;;;;;;;;;;;;;5060650;28;19925;-79
2022/06/15 08:49:12;;;;;;;;;;;;;;;;;;5076083;28;19924;-79
2022/06/15 08:51:38;;;;;;;;;;;;;;;;;;5075312;28;20046;-80
2022/06/15 08:54:04;;;;;;;;;;;;;;;;;;5081619;28;20026;-80
2022/06/15 08:56:30;;;;;;;;;;;;;;;;;;5077407;28;19932;-81
2022/06/15 08:58:56;;;;;;;;;;;;;;;;;;5061133;28;19931;-81
2022/06/15 09:01:26;;;;;;;;;;;;;;;;;;5075389;28;20371;-85
2022/06/15 09:03:52;;;;;;;;;;;;;;;;;;5060583;28;20380;-80
2022/06/15 09:06:18;;;;;;;;;;;;;;;;;;5080484;28;19932;-81
2022/06/15 09:08:44;;;;;;;;;;;;;;;;;;5067120;28;19988;-81
2022/06/15 09:11:10;;;;;;;;;;;;;;;;;;5067400;28;20023;-83
2022/06/15 09:13:36;;;;;;;;;;;;;;;;;;5070068;28;19924;-82
2022/06/15 09:16:03;;;;;;;;;;;;;;;;;;5083904;28;19973;-84
2022/06/15 09:18:28;;;;;;;;;;;;;;;;;;5084364;28;20006;-82
2022/06/15 09:20:54;;;;;;;;;;;;;;;;;;5074728;28;19963;-84
2022/06/15 09:23:20;;;;;;;;;;;;;;;;;;5079386;28;19923;-82
2022/06/15 09:25:46;;;;;;;;;;;;;;;;;;5058914;28;19928;-81
2022/06/15 09:28:12;;;;;;;;;;;;;;;;;;5075376;28;20287;-82
2022/06/15 09:30:40;;;;;;;;;;;;;;;;;;5074636;28;19924;-82
2022/06/15 09:33:06;;;;;;;;;;;;;;;;;;5074566;28;19924;-82
2022/06/15 09:35:32;;;;;;;;;;;;;;;;;;5064231;28;19931;-82
2022/06/15 09:37:58;;;;;;;;;;;;;;;;;;5058594;28;19924;-83
2022/06/15 09:40:24;;;;;;;;;;;;;;;;;;5057954;28;20394;-84
2022/06/15 09:42:50;;;;;;;;;;;;;;;;;;5057362;28;19932;-82
2022/06/15 09:45:16;;;;;;;;;;;;;;;;;;5063299;28;19923;-82
2022/06/15 09:47:42;;;;;;;;;;;;;;;;;;5089832;28;20500;-82
2022/06/15 09:50:08;;;;;;;;;;;;;;;;;;5074644;28;20410;-78
2022/06/15 09:52:34;;;;;;;;;;;;;;;;;;5087025;28;19994;-78
2022/06/15 09:55:00;;;;;;;;;;;;;;;;;;5062699;28;19977;-78
2022/06/15 09:57:26;;;;;;;;;;;;;;;;;;5066142;28;19927;-83
2022/06/15 09:59:52;;;;;;;;;;;;;;;;;;5072816;28;19946;-78
2022/06/15 10:02:18;;;;;;;;;;;;;;;;;;5080798;28;20053;-77
2022/06/15 10:04:44;;;;;;;;;;;;;;;;;;5074821;28;19935;-77
2022/06/15 10:07:11;;;;;;;;;;;;;;;;;;5081690;28;19931;-77
2022/06/15 10:09:37;;;;;;;;;;;;;;;;;;5108821;28;19928;-77
2022/06/15 10:15:01;;;;;;;;;;;;;;;;;;5028969;28;19924;-77
2022/06/15 10:17:29;;;;;;;;;;;;;;;;;;5080755;28;19977;-82
2022/06/15 10:19:55;;;;;;;;;;;;;;;;;;5086669;28;19955;-78
2022/06/15 10:22:21;;;;;;;;;;;;;;;;;;5080854;28;19956;-78
2022/06/15 10:24:47;;;;;;;;;;;;;;;;;;5088567;28;20217;-77
2022/06/15 10:27:13;;;;;;;;;;;;;;;;;;5086150;28;19939;-77
2022/06/15 10:29:39;;;;;;;;;;;;;;;;;;5107601;28;19924;-81
2022/06/15 10:32:05;;;;;;;;;;;;;;;;;;5081395;28;19935;-80
2022/06/15 10:34:31;;;;;;;;;;;;;;;;;;5094334;28;19924;-80
2022/06/15 10:36:57;;;;;;;;;;;;;;;;;;5084787;28;19980;-81
2022/06/15 10:39:23;;;;;;;;;;;;;;;;;;5086800;28;20344;-77
2022/06/15 10:41:49;;;;;;;;;;;;;;;;;;5078652;28;20492;-81
2022/06/15 10:44:15;;;;;;;;;;;;;;;;;;5091391;28;19974;-79
2022/06/15 10:46:41;;;;;;;;;;;;;;;;;;5094041;28;19963;-75
2022/06/15 10:49:07;;;;;;;;;;;;;;;;;;5083794;28;19927;-78
2022/06/15 10:51:33;;;;;;;;;;;;;;;;;;5111309;28;19927;-77
2022/06/15 10:53:59;;;;;;;;;;;;;;;;;;5088043;28;19928;-75
2022/06/15 11:02:07;;;;;;;;;;;;;;;;;;5087674;28;19931;-77
2022/06/15 11:04:33;;;;;;;;;;;;;;;;;;5077131;28;19963;-80
2022/06/15 11:06:59;;;;;;;;;;;;;;;;;;5088765;28;19975;-77
2022/06/15 11:09:25;;;;;;;;;;;;;;;;;;5078760;28;19931;-76
2022/06/15 11:11:51;;;;;;;;;;;;;;;;;;5107300;28;19973;-77
2022/06/15 11:14:17;;;;;;;;;;;;;;;;;;5095541;28;19928;-77
2022/06/15 11:19:29;;;;;;;;;;;;;;;;;;5089487;28;19924;-79
2022/06/15 11:21:55;;;;;;;;;;;;;;;;;;5080064;28;19924;-77
2022/06/15 11:24:21;;;;;;;;;;;;;;;;;;5066118;28;19924;-77
2022/06/15 11:26:54;;;;;;;;;;;;;;;;;;5108057;28;19930;-76
2022/06/15 11:29:21;;;;;;;;;;;;;;;;;;5086319;28;20304;-77
2022/06/15 11:31:47;;;;;;;;;;;;;;;;;;5090715;28;19928;-77
2022/06/15 11:34:13;;;;;;;;;;;;;;;;;;5111758;28;19931;-77
2022/06/15 11:36:39;;;;;;;;;;;;;;;;;;5094783;28;19977;-82
2022/06/15 11:39:07;;;;;;;;;;;;;;;;;;5096113;28;19931;-76
2022/06/15 11:41:33;;;;;;;;;;;;;;;;;;5083599;28;20278;-78
2022/06/15 11:43:59;;;;;;;;;;;;;;;;;;5078136;28;19932;-77
2022/06/15 11:46:25;;;;;;;;;;;;;;;;;;5077198;28;19931;-76
2022/06/15 11:48:51;;;;;;;;;;;;;;;;;;5101479;28;19924;-77
2022/06/15 11:51:17;;;;;;;;;;;;;;;;;;5102410;28;19931;-77
2022/06/15 11:53:44;;;;;;;;;;;;;;;;;;5076076;28;19928;-78
2022/06/15 11:56:11;;;;;;;;;;;;;;;;;;5076623;28;19999;-77
2022/06/15 11:58:37;;;;;;;;;;;;;;;;;;5092948;28;19928;-76
2022/06/15 12:01:03;;;;;;;;;;;;;;;;;;5077056;28;19928;-76
2022/06/15 12:03:29;;;;;;;;;;;;;;;;;;5075881;28;19928;-77
2022/06/15 12:05:56;;;;;;;;;;;;;;;;;;5094594;28;20290;-77
2022/06/15 12:08:22;;;;;;;;;;;;;;;;;;5090688;28;19959;-76
2022/06/15 12:10:48;;;;;;;;;;;;;;;;;;5090762;28;20003;-80
2022/06/15 12:13:14;;;;;;;;;;;;;;;;;;5090597;28;20007;-76
2022/06/15 12:15:40;;;;;;;;;;;;;;;;;;5075327;28;19931;-77
2022/06/15 12:18:06;;;;;;;;;;;;;;;;;;5089546;28;20370;-79
2022/06/15 12:20:32;;;;;;;;;;;;;;;;;;5076431;28;19928;-76
2022/06/15 12:22:58;;;;;;;;;;;;;;;;;;5058790;28;20436;-76
2022/06/15 12:25:24;;;;;;;;;;;;;;;;;;5081096;28;19939;-78
2022/06/15 12:27:50;;;;;;;;;;;;;;;;;;5093723;28;19924;-79
2022/06/15 12:30:16;;;;;;;;;;;;;;;;;;5081366;28;20383;-78
2022/06/15 12:32:42;;;;;;;;;;;;;;;;;;5058551;28;20097;-78
2022/06/15 12:35:10;;;;;;;;;;;;;;;;;;5088064;28;19924;-76
2022/06/15 12:37:36;;;;;;;;;;;;;;;;;;5095119;28;19924;-76
2022/06/15 12:40:02;;;;;;;;;;;;;;;;;;5093743;28;19935;-80
2022/06/15 12:42:28;;;;;;;;;;;;;;;;;;5099385;28;19930;-81
2022/06/15 12:44:54;;;;;;;;;;;;;;;;;;5080571;28;19927;-78
2022/06/15 12:47:20;;;;;;;;;;;;;;;;;;5082441;28;19932;-79
2022/06/15 12:49:46;;;;;;;;;;;;;;;;;;5075238;28;20413;-79
2022/06/15 12:52:12;;;;;;;;;;;;;;;;;;5062015;28;19928;-83
2022/06/15 12:54:38;;;;;;;;;;;;;;;;;;5092610;28;19928;-87
2022/06/15 12:57:04;;;;;;;;;;;;;;;;;;5060263;28;19934;-86
2022/06/15 12:59:30;;;;;;;;;;;;;;;;;;5075910;28;19984;-86
2022/06/15 13:01:56;;;;;;;;;;;;;;;;;;5072947;28;19983;-87
2022/06/15 13:04:22;;;;;;;;;;;;;;;;;;5081947;28;19990;-87
2022/06/15 13:06:48;;;;;;;;;;;;;;;;;;5074324;28;19981;-87
2022/06/15 13:09:14;;;;;;;;;;;;;;;;;;5084363;28;19923;-86
2022/06/15 13:11:40;;;;;;;;;;;;;;;;;;5075483;28;19963;-87
2022/06/15 13:14:06;;;;;;;;;;;;;;;;;;5095258;28;19924;-87
2022/06/15 13:16:33;;;;;;;;;;;;;;;;;;5059407;28;20383;-88
2022/06/15 13:18:59;;;;;;;;;;;;;;;;;;5084895;28;19923;-88
2022/06/15 13:21:25;;;;;;;;;;;;;;;;;;5082267;28;19924;-88
2022/06/15 13:23:51;;;;;;;;;;;;;;;;;;5079436;28;19930;-87
2022/06/15 13:26:17;;;;;;;;;;;;;;;;;;5087863;28;19973;-88
2022/06/15 13:28:44;;;;;;;;;;;;;;;;;;5059347;28;19924;-87
2022/06/15 13:31:10;;;;;;;;;;;;;;;;;;5064538;28;19924;-88
2022/06/15 13:33:36;;;;;;;;;;;;;;;;;;5064214;28;19928;-88
2022/06/15 13:36:02;;;;;;;;;;;;;;;;;;5083856;28;20279;-89
2022/06/15 13:38:28;;;;;;;;;;;;;;;;;;5082062;28;19931;-89
2022/06/15 13:40:54;;;;;;;;;;;;;;;;;;5060336;28;19967;-79
2022/06/15 13:43:20;;;;;;;;;;;;;;;;;;5074769;28;19924;-77
2022/06/15 13:45:46;;;;;;;;;;;;;;;;;;5074350;28;19932;-77
2022/06/15 13:48:12;;;;;;;;;;;;;;;;;;5092602;28;19924;-78
2022/06/15 13:50:38;;;;;;;;;;;;;;;;;;5085514;28;19924;-79
2022/06/15 13:53:04;;;;;;;;;;;;;;;;;;5093092;28;20367;-81
2022/06/15 13:55:31;;;;;;;;;;;;;;;;;;5094215;28;19924;-78
2022/06/15 13:57:57;;;;;;;;;;;;;;;;;;5073697;28;19924;-78
2022/06/15 14:00:23;;;;;;;;;;;;;;;;;;5098925;28;19923;-79
2022/06/15 14:02:49;;;;;;;;;;;;;;;;;;5109730;28;20351;-80
2022/06/15 14:05:15;;;;;;;;;;;;;;;;;;5076047;28;20346;-81
2022/06/15 14:07:41;;;;;;;;;;;;;;;;;;5074528;28;19930;-81
2022/06/15 14:10:07;;;;;;;;;;;;;;;;;;5074627;28;19930;-81
2022/06/15 14:12:33;;;;;;;;;;;;;;;;;;5075282;28;20282;-80
2022/06/15 14:14:59;;;;;;;;;;;;;;;;;;5057275;28;20286;-83
2022/06/15 14:17:25;;;;;;;;;;;;;;;;;;5074662;28;19975;-79
2022/06/15 14:19:53;;;;;;;;;;;;;;;;;;5056674;28;20413;-81
2022/06/15 14:22:22;;;;;;;;;;;;;;;;;;5074034;28;19930;-80
2022/06/15 14:24:48;;;;;;;;;;;;;;;;;;5091295;28;19919;-80
2022/06/15 14:27:13;;;;;;;;;;;;;;;;;;5102550;28;19997;-81
2022/06/15 14:29:39;;;;;;;;;;;;;;;;;;5085431;28;20010;-80
2022/06/15 14:32:05;;;;;;;;;;;;;;;;;;5072862;28;19935;-83
2022/06/15 14:34:31;;;;;;;;;;;;;;;;;;5083149;28;19939;-79
2022/06/15 14:36:57;;;;;;;;;;;;;;;;;;5073243;28;19928;-78
2022/06/15 14:39:23;;;;;;;;;;;;;;;;;;5057802;28;19957;-79
2022/06/15 14:41:49;;;;;;;;;;;;;;;;;;5079807;28;19974;-79
2022/06/15 14:44:16;;;;;;;;;;;;;;;;;;5080959;28;19924;-78
2022/06/15 14:46:45;;;;;;;;;;;;;;;;;;5082179;28;19996;-79
2022/06/15 14:49:11;;;;;;;;;;;;;;;;;;5085945;28;19931;-76
2022/06/15 14:51:37;;;;;;;;;;;;;;;;;;5070347;28;19932;-78
2022/06/15 14:54:03;;;;;;;;;;;;;;;;;;5074381;28;20030;-77
2022/06/15 14:56:29;;;;;;;;;;;;;;;;;;5075715;28;19924;-78
2022/06/15 14:58:55;;;;;;;;;;;;;;;;;;5083579;28;19924;-80
2022/06/15 15:01:21;;;;;;;;;;;;;;;;;;5075211;28;19951;-77
2022/06/15 15:03:47;;;;;;;;;;;;;;;;;;5078269;28;19924;-82
2022/06/15 15:06:13;;;;;;;;;;;;;;;;;;5074809;28;19924;-80
2022/06/15 15:08:39;;;;;;;;;;;;;;;;;;5080061;28;21602;-82
2022/06/15 15:11:05;;;;;;;;;;;;;;;;;;5086663;28;20415;-83
2022/06/15 15:13:32;;;;;;;;;;;;;;;;;;5059284;28;19924;-77
2022/06/15 15:15:58;;;;;;;;;;;;;;;;;;5067495;28;19932;-77
2022/06/15 15:18:24;;;;;;;;;;;;;;;;;;5089976;28;19934;-78
2022/06/15 15:20:50;;;;;;;;;;;;;;;;;;5102989;28;19924;-79
2022/06/15 15:23:16;;;;;;;;;;;;;;;;;;5060777;28;19924;-80
2022/06/15 15:25:42;;;;;;;;;;;;;;;;;;5077879;28;19935;-78
2022/06/15 15:39:07;;;;;;;;;;;;;;;;;;5078626;28;19924;-80
2022/06/15 15:41:33;;;;;;;;;;;;;;;;;;5103137;28;19984;-81
2022/06/15 15:43:59;;;;;;;;;;;;;;;;;;5091584;28;19923;-81
2022/06/15 15:46:25;;;;;;;;;;;;;;;;;;5079023;28;19931;-81
2022/06/15 15:48:51;;;;;;;;;;;;;;;;;;5078200;28;19923;-81
2022/06/15 15:51:17;;;;;;;;;;;;;;;;;;5086820;28;19928;-81
2022/06/15 15:53:43;;;;;;;;;;;;;;;;;;5083143;28;20019;-85
2022/06/15 15:56:09;;;;;;;;;;;;;;;;;;5102023;28;19928;-83
2022/06/15 15:58:35;;;;;;;;;;;;;;;;;;5095407;28;19931;-87
2022/06/15 16:01:01;;;;;;;;;;;;;;;;;;5083643;28;19924;-86
2022/06/15 16:03:27;;;;;;;;;;;;;;;;;;5084480;28;20014;-84
2022/06/15 16:05:53;;;;;;;;;;;;;;;;;;5073461;28;19938;-81
2022/06/15 16:08:19;;;;;;;;;;;;;;;;;;5066748;28;19928;-82
2022/06/15 16:10:45;;;;;;;;;;;;;;;;;;5086575;28;19928;-80
2022/06/15 16:13:11;;;;;;;;;;;;;;;;;;5082392;28;19923;-81
2022/06/15 16:15:37;;;;;;;;;;;;;;;;;;5061086;28;19928;-80
2022/06/15 16:18:03;;;;;;;;;;;;;;;;;;5076009;28;19924;-75
2022/06/15 16:20:29;;;;;;;;;;;;;;;;;;5080750;28;19924;-77
2022/06/15 16:22:55;;;;;;;;;;;;;;;;;;5084023;28;20310;-75
2022/06/15 16:25:21;;;;;;;;;;;;;;;;;;5096252;28;19927;-77
2022/06/15 16:27:47;;;;;;;;;;;;;;;;;;5079367;28;19936;-77
2022/06/15 16:30:13;;;;;;;;;;;;;;;;;;5098356;28;19934;-77
2022/06/15 16:32:39;;;;;;;;;;;;;;;;;;5061237;28;19982;-76
2022/06/15 16:35:05;;;;;;;;;;;;;;;;;;5077345;28;19923;-76
2022/06/15 16:37:31;;;;;;;;;;;;;;;;;;5100898;28;19977;-76
2022/06/15 16:39:57;;;;;;;;;;;;;;;;;;5081699;28;19930;-76
2022/06/15 16:42:23;;;;;;;;;;;;;;;;;;5093056;28;19924;-76
2022/06/15 16:44:49;;;;;;;;;;;;;;;;;;5074586;28;19958;-78
2022/06/15 16:47:15;;;;;;;;;;;;;;;;;;5064213;28;19931;-80
2022/06/15 16:49:41;;;;;;;;;;;;;;;;;;5085144;28;19987;-80
2022/06/15 16:52:07;;;;;;;;;;;;;;;;;;5078980;28;19978;-80
2022/06/15 16:54:33;;;;;;;;;;;;;;;;;;5083386;28;19959;-81
2022/06/15 16:56:59;;;;;;;;;;;;;;;;;;5082008;28;20012;-80
2022/06/15 16:59:25;;;;;;;;;;;;;;;;;;5082453;28;20594;-79
2022/06/15 17:01:51;;;;;;;;;;;;;;;;;;5081852;28;19927;-80
2022/06/15 17:04:17;;;;;;;;;;;;;;;;;;5071676;28;19924;-80